createdAt,value
2023-02-24T00:00:08.220Z,0.00
2023-02-24T00:01:08.188Z,0.00
2023-02-24T00:02:08.338Z,0.00
2023-02-24T00:03:08.172Z,0.00
2023-02-24T00:04:08.122Z,0.00
2023-02-24T00:05:08.095Z,0.00
2023-02-24T00:06:08.073Z,0.00
2023-02-24T00:07:08.033Z,0.00
2023-02-24T00:08:08.020Z,0.00
2023-02-24T00:09:08.027Z,0.00
2023-02-24T00:10:07.995Z,0.00
2023-02-24T00:11:07.956Z,0.00
2023-02-24T00:12:07.923Z,0.00
2023-02-24T00:13:07.909Z,0.00
2023-02-24T00:14:07.885Z,0.00
2023-02-24T00:15:07.851Z,0.00
2023-02-24T00:16:07.850Z,0.00
2023-02-24T00:17:07.796Z,0.00
2023-02-24T00:18:07.779Z,0.00
2023-02-24T00:19:07.770Z,0.00
2023-02-24T00:20:07.725Z,0.00
2023-02-24T00:21:07.692Z,0.00
2023-02-24T00:22:07.690Z,0.00
2023-02-24T00:23:07.646Z,0.00
2023-02-24T00:24:07.640Z,0.00
2023-02-24T00:25:07.615Z,0.00
2023-02-24T00:26:07.620Z,0.00
2023-02-24T00:27:07.705Z,0.00
2023-02-24T00:28:07.529Z,0.00
2023-02-24T00:29:07.505Z,0.00
2023-02-24T00:30:07.548Z,0.00
2023-02-24T00:31:07.586Z,0.00
2023-02-24T00:32:07.891Z,0.00
2023-02-24T00:33:07.517Z,0.00
2023-02-24T00:34:07.387Z,0.00
2023-02-24T00:35:07.358Z,0.00
2023-02-24T00:36:07.348Z,0.00
2023-02-24T00:37:07.314Z,0.00
2023-02-24T00:38:07.296Z,0.00
2023-02-24T00:39:07.332Z,0.00
2023-02-24T00:40:07.251Z,0.00
2023-02-24T00:41:07.235Z,0.00
2023-02-24T00:42:07.202Z,0.00
2023-02-24T00:43:07.197Z,0.00
2023-02-24T00:44:07.230Z,0.00
2023-02-24T00:45:07.133Z,0.00
2023-02-24T00:46:07.120Z,0.00
2023-02-24T00:47:07.105Z,0.00
2023-02-24T00:48:07.059Z,0.00
2023-02-24T00:49:07.055Z,0.00
2023-02-24T00:50:07.039Z,0.00
2023-02-24T00:51:06.976Z,0.00
2023-02-24T00:52:06.970Z,0.00
2023-02-24T00:53:06.934Z,0.00
2023-02-24T00:54:06.922Z,0.00
2023-02-24T00:55:06.892Z,0.00
2023-02-24T00:56:06.864Z,0.00
2023-02-24T00:57:06.837Z,0.00
2023-02-24T00:58:06.826Z,0.00
2023-02-24T00:59:06.812Z,0.00
2023-02-24T01:00:06.776Z,0.00
2023-02-24T01:01:06.744Z,0.00
2023-02-24T01:02:06.721Z,0.00
2023-02-24T01:03:06.694Z,0.00
2023-02-24T01:04:06.707Z,0.00
2023-02-24T01:05:06.644Z,0.00
2023-02-24T01:06:06.620Z,0.00
2023-02-24T01:07:06.602Z,0.00
2023-02-24T01:08:06.571Z,0.00
2023-02-24T01:09:06.583Z,0.00
2023-02-24T01:10:06.535Z,0.00
2023-02-24T01:11:06.498Z,0.00
2023-02-24T01:12:06.562Z,0.00
2023-02-24T01:13:06.477Z,0.00
2023-02-24T01:14:06.431Z,0.00
2023-02-24T01:15:06.398Z,0.00
2023-02-24T01:16:06.425Z,0.00
2023-02-24T01:17:06.358Z,0.00
2023-02-24T01:18:06.334Z,0.00
2023-02-24T01:19:06.330Z,0.00
2023-02-24T01:20:06.296Z,0.00
2023-02-24T01:21:06.263Z,0.00
2023-02-24T01:22:06.235Z,0.00
2023-02-24T01:23:06.208Z,0.00
2023-02-24T01:24:06.187Z,0.00
2023-02-24T01:25:06.156Z,0.00
2023-02-24T01:26:06.137Z,0.00
2023-02-24T01:27:06.113Z,0.00
2023-02-24T01:28:06.085Z,0.00
2023-02-24T01:29:06.062Z,0.00
2023-02-24T01:30:06.052Z,0.00
2023-02-24T01:31:06.108Z,0.00
2023-02-24T01:32:06.137Z,0.00
2023-02-24T01:33:06.170Z,0.00
2023-02-24T01:34:06.014Z,0.00
2023-02-24T01:35:05.932Z,0.00
2023-02-24T01:36:05.896Z,0.00
2023-02-24T01:37:05.879Z,0.00
2023-02-24T01:38:05.849Z,0.00
2023-02-24T01:39:05.823Z,0.00
2023-02-24T01:40:05.820Z,0.00
2023-02-24T01:41:05.773Z,0.00
2023-02-24T01:42:05.749Z,0.00
2023-02-24T01:43:05.734Z,0.00
2023-02-24T01:44:05.752Z,0.00
2023-02-24T01:45:05.687Z,0.00
2023-02-24T01:46:05.670Z,0.00
2023-02-24T01:47:05.688Z,0.00
2023-02-24T01:48:05.612Z,0.00
2023-02-24T01:49:05.591Z,0.00
2023-02-24T01:50:05.585Z,0.00
2023-02-24T01:51:05.735Z,0.00
2023-02-24T01:52:05.512Z,0.00
2023-02-24T01:53:05.483Z,0.00
2023-02-24T01:54:05.461Z,0.00
2023-02-24T01:55:05.433Z,0.00
2023-02-24T01:56:05.420Z,0.00
2023-02-24T01:57:05.422Z,0.00
2023-02-24T01:58:05.430Z,0.00
2023-02-24T01:59:05.370Z,0.00
2023-02-24T02:00:05.325Z,0.00
2023-02-24T02:01:05.289Z,0.00
2023-02-24T02:02:05.444Z,0.00
2023-02-24T02:03:05.248Z,0.00
2023-02-24T02:04:05.216Z,0.00
2023-02-24T02:05:05.205Z,0.00
2023-02-24T02:06:05.168Z,0.00
2023-02-24T02:07:05.144Z,0.00
2023-02-24T02:08:05.140Z,0.00
2023-02-24T02:09:05.153Z,0.00
2023-02-24T02:10:05.095Z,0.00
2023-02-24T02:11:05.061Z,0.00
2023-02-24T02:12:05.088Z,0.00
2023-02-24T02:13:05.051Z,0.00
2023-02-24T02:14:05.014Z,0.00
2023-02-24T02:15:04.946Z,0.00
2023-02-24T02:16:04.976Z,0.00
2023-02-24T02:17:04.908Z,0.00
2023-02-24T02:18:04.881Z,0.00
2023-02-24T02:19:04.881Z,0.00
2023-02-24T02:20:04.840Z,0.00
2023-02-24T02:21:04.806Z,0.00
2023-02-24T02:22:04.781Z,0.00
2023-02-24T02:23:04.772Z,0.00
2023-02-24T02:24:04.755Z,0.00
2023-02-24T02:25:04.712Z,0.00
2023-02-24T02:26:04.682Z,0.00
2023-02-24T02:27:04.662Z,0.00
2023-02-24T02:28:04.648Z,0.00
2023-02-24T02:29:04.622Z,0.00
2023-02-24T02:30:04.599Z,0.00
2023-02-24T02:31:04.625Z,0.00
2023-02-24T02:32:04.657Z,0.00
2023-02-24T02:33:04.510Z,0.00
2023-02-24T02:34:04.495Z,0.00
2023-02-24T02:35:04.466Z,0.00
2023-02-24T02:36:04.456Z,0.00
2023-02-24T02:37:04.419Z,0.00
2023-02-24T02:38:04.419Z,0.00
2023-02-24T02:39:04.365Z,0.00
2023-02-24T02:40:04.356Z,0.00
2023-02-24T02:41:04.318Z,0.00
2023-02-24T02:42:04.301Z,0.00
2023-02-24T02:43:04.274Z,0.00
2023-02-24T02:44:04.248Z,0.00
2023-02-24T02:45:04.231Z,0.00
2023-02-24T02:46:04.268Z,0.00
2023-02-24T02:47:04.168Z,0.00
2023-02-24T02:48:04.152Z,0.00
2023-02-24T02:49:04.134Z,0.00
2023-02-24T02:50:04.105Z,0.00
2023-02-24T02:51:04.132Z,0.00
2023-02-24T02:52:04.062Z,0.00
2023-02-24T02:53:04.032Z,0.00
2023-02-24T02:54:04.008Z,0.00
2023-02-24T02:55:03.974Z,0.00
2023-02-24T02:56:03.954Z,0.00
2023-02-24T02:57:03.926Z,0.00
2023-02-24T02:58:03.902Z,0.00
2023-02-24T02:59:03.882Z,0.00
2023-02-24T03:00:03.860Z,0.00
2023-02-24T03:01:04.339Z,0.00
2023-02-24T03:02:03.804Z,0.00
2023-02-24T03:03:03.784Z,0.00
2023-02-24T03:04:03.768Z,0.00
2023-02-24T03:05:03.842Z,0.00
2023-02-24T03:06:03.703Z,0.00
2023-02-24T03:07:03.687Z,0.00
2023-02-24T03:08:03.659Z,0.00
2023-02-24T03:09:03.627Z,0.00
2023-02-24T03:10:03.606Z,0.00
2023-02-24T03:11:03.588Z,0.00
2023-02-24T03:12:03.582Z,0.00
2023-02-24T03:13:03.559Z,0.00
2023-02-24T03:14:03.511Z,0.00
2023-02-24T03:15:03.505Z,0.00
2023-02-24T03:16:03.454Z,0.00
2023-02-24T03:17:03.435Z,0.00
2023-02-24T03:18:03.408Z,0.00
2023-02-24T03:19:03.408Z,0.00
2023-02-24T03:20:03.398Z,0.00
2023-02-24T03:21:03.366Z,0.00
2023-02-24T03:22:03.312Z,0.00
2023-02-24T03:23:03.318Z,0.00
2023-02-24T03:24:03.284Z,0.00
2023-02-24T03:25:03.242Z,0.00
2023-02-24T03:26:03.217Z,0.00
2023-02-24T03:27:03.206Z,0.00
2023-02-24T03:28:03.170Z,0.00
2023-02-24T03:29:03.135Z,0.00
2023-02-24T03:30:03.133Z,0.00
2023-02-24T03:31:03.183Z,0.00
2023-02-24T03:32:03.210Z,0.00
2023-02-24T03:33:03.060Z,0.00
2023-02-24T03:34:03.026Z,0.00
2023-02-24T03:35:03.039Z,0.00
2023-02-24T03:36:02.991Z,0.00
2023-02-24T03:37:02.948Z,0.00
2023-02-24T03:38:02.929Z,0.00
2023-02-24T03:39:02.948Z,0.00
2023-02-24T03:40:02.878Z,0.00
2023-02-24T03:41:02.851Z,0.00
2023-02-24T03:42:02.824Z,0.00
2023-02-24T03:43:02.860Z,0.00
2023-02-24T03:44:02.798Z,0.00
2023-02-24T03:45:02.755Z,0.00
2023-02-24T03:46:02.750Z,0.00
2023-02-24T03:47:02.711Z,0.00
2023-02-24T03:48:02.679Z,0.00
2023-02-24T03:49:02.654Z,0.00
2023-02-24T03:50:02.630Z,0.00
2023-02-24T03:51:02.616Z,0.00
2023-02-24T03:52:02.600Z,0.00
2023-02-24T03:53:02.584Z,0.00
2023-02-24T03:54:02.546Z,0.00
2023-02-24T03:55:02.505Z,0.00
2023-02-24T03:56:02.497Z,0.00
2023-02-24T03:57:02.456Z,0.00
2023-02-24T03:58:02.440Z,0.00
2023-02-24T03:59:02.403Z,0.00
2023-02-24T04:00:02.382Z,0.00
2023-02-24T04:01:02.370Z,0.00
2023-02-24T04:02:02.399Z,0.00
2023-02-24T04:03:02.337Z,0.00
2023-02-24T04:04:02.282Z,0.00
2023-02-24T04:05:02.335Z,0.00
2023-02-24T04:06:02.245Z,0.00
2023-02-24T04:07:02.211Z,0.00
2023-02-24T04:08:02.192Z,0.00
2023-02-24T04:09:02.175Z,0.00
2023-02-24T04:10:02.136Z,0.00
2023-02-24T04:11:02.122Z,0.00
2023-02-24T04:12:02.103Z,0.00
2023-02-24T04:13:02.076Z,0.00
2023-02-24T04:14:02.088Z,0.00
2023-02-24T04:15:02.042Z,0.00
2023-02-24T04:16:02.171Z,0.00
2023-02-24T04:17:01.973Z,0.00
2023-02-24T04:18:01.956Z,0.00
2023-02-24T04:19:01.920Z,0.00
2023-02-24T04:20:01.940Z,0.00
2023-02-24T04:21:01.866Z,0.00
2023-02-24T04:22:01.852Z,0.00
2023-02-24T04:23:01.819Z,0.00
2023-02-24T04:24:01.788Z,0.00
2023-02-24T04:25:01.775Z,0.00
2023-02-24T04:26:01.781Z,0.00
2023-02-24T04:27:01.738Z,0.00
2023-02-24T04:28:01.705Z,0.00
2023-02-24T04:29:01.675Z,0.00
2023-02-24T04:30:01.864Z,0.00
2023-02-24T04:31:01.793Z,0.00
2023-02-24T04:32:01.789Z,0.00
2023-02-24T04:33:01.574Z,0.00
2023-02-24T04:34:01.558Z,0.00
2023-02-24T04:35:01.528Z,0.00
2023-02-24T04:36:01.585Z,0.00
2023-02-24T04:37:01.482Z,0.00
2023-02-24T04:38:01.455Z,0.00
2023-02-24T04:39:01.426Z,0.00
2023-02-24T04:40:01.449Z,0.00
2023-02-24T04:41:01.384Z,0.00
2023-02-24T04:42:01.351Z,0.00
2023-02-24T04:43:01.326Z,0.00
2023-02-24T04:44:01.302Z,0.00
2023-02-24T04:45:01.309Z,0.00
2023-02-24T04:46:01.356Z,0.00
2023-02-24T04:47:01.257Z,0.00
2023-02-24T04:48:01.359Z,0.00
2023-02-24T04:49:01.180Z,0.00
2023-02-24T04:50:01.159Z,0.00
2023-02-24T04:51:01.143Z,0.00
2023-02-24T04:52:01.126Z,0.00
2023-02-24T04:53:01.292Z,0.00
2023-02-24T04:54:01.055Z,0.00
2023-02-24T04:55:01.052Z,0.00
2023-02-24T04:56:01.021Z,0.00
2023-02-24T04:57:00.996Z,0.00
2023-02-24T04:58:00.982Z,0.00
2023-02-24T04:59:00.953Z,0.00
2023-02-24T05:00:00.912Z,0.00
2023-02-24T05:01:00.888Z,0.00
2023-02-24T05:02:00.870Z,0.00
2023-02-24T05:03:00.834Z,0.00
2023-02-24T05:04:00.849Z,0.00
2023-02-24T05:05:00.844Z,0.00
2023-02-24T05:06:00.761Z,0.00
2023-02-24T05:07:00.752Z,0.00
2023-02-24T05:08:00.703Z,0.00
2023-02-24T05:09:00.696Z,0.00
2023-02-24T05:10:00.678Z,0.00
2023-02-24T05:11:00.643Z,0.00
2023-02-24T05:12:00.619Z,0.00
2023-02-24T05:13:02.373Z,0.00
2023-02-24T05:14:00.571Z,0.00
2023-02-24T05:15:00.538Z,0.00
2023-02-24T05:16:00.575Z,0.00
2023-02-24T05:17:00.740Z,0.00
2023-02-24T05:18:00.475Z,0.00
2023-02-24T05:19:00.440Z,0.00
2023-02-24T05:20:00.439Z,0.00
2023-02-24T05:21:01.768Z,0.00
2023-02-24T05:22:00.375Z,0.00
2023-02-24T05:23:00.338Z,0.00
2023-02-24T05:24:00.323Z,0.00
2023-02-24T05:25:00.297Z,0.00
2023-02-24T05:26:00.263Z,0.00
2023-02-24T05:27:00.239Z,0.00
2023-02-24T05:28:00.210Z,0.00
2023-02-24T05:29:00.191Z,0.00
2023-02-24T05:30:00.200Z,0.00
2023-02-24T05:31:00.277Z,0.00
2023-02-24T05:32:00.287Z,0.00
2023-02-24T05:33:00.147Z,0.00
2023-02-24T05:34:00.072Z,0.00
2023-02-24T05:35:00.042Z,0.00
2023-02-24T05:36:00.016Z,0.00
2023-02-24T05:37:00.009Z,0.00
2023-02-24T05:37:59.961Z,0.00
2023-02-24T05:38:59.944Z,0.00
2023-02-24T05:39:59.912Z,0.00
2023-02-24T05:40:59.904Z,0.00
2023-02-24T05:41:59.863Z,0.00
2023-02-24T05:42:59.848Z,0.00
2023-02-24T05:43:59.822Z,0.00
2023-02-24T05:44:59.789Z,0.00
2023-02-24T05:45:59.777Z,0.00
2023-02-24T05:46:59.840Z,0.00
2023-02-24T05:47:59.726Z,0.00
2023-02-24T05:48:59.693Z,0.00
2023-02-24T05:49:59.670Z,0.00
2023-02-24T05:50:59.665Z,0.00
2023-02-24T05:51:59.616Z,0.00
2023-02-24T05:52:59.597Z,0.00
2023-02-24T05:53:59.570Z,0.00
2023-02-24T05:54:59.540Z,0.00
2023-02-24T05:55:59.506Z,0.00
2023-02-24T05:56:59.562Z,0.00
2023-02-24T05:57:59.460Z,0.00
2023-02-24T05:58:59.438Z,0.00
2023-02-24T05:59:59.416Z,0.00
2023-02-24T06:00:59.389Z,0.00
2023-02-24T06:01:59.407Z,0.00
2023-02-24T06:02:59.380Z,0.00
2023-02-24T06:03:59.311Z,0.00
2023-02-24T06:04:59.289Z,0.00
2023-02-24T06:05:59.323Z,0.00
2023-02-24T06:06:59.256Z,0.00
2023-02-24T06:07:59.223Z,0.00
2023-02-24T06:08:59.191Z,0.00
2023-02-24T06:09:59.190Z,0.00
2023-02-24T06:10:59.174Z,0.00
2023-02-24T06:11:59.189Z,0.00
2023-02-24T06:12:59.156Z,0.00
2023-02-24T06:13:59.077Z,0.00
2023-02-24T06:14:59.051Z,0.00
2023-02-24T06:15:59.062Z,0.00
2023-02-24T06:16:58.992Z,0.00
2023-02-24T06:17:58.972Z,5.63
2023-02-24T06:18:58.973Z,5.63
2023-02-24T06:19:58.916Z,5.63
2023-02-24T06:20:58.909Z,5.63
2023-02-24T06:21:58.865Z,5.63
2023-02-24T06:22:58.854Z,5.63
2023-02-24T06:23:58.822Z,5.63
2023-02-24T06:24:58.838Z,5.63
2023-02-24T06:25:58.787Z,5.63
2023-02-24T06:26:58.743Z,5.63
2023-02-24T06:27:58.714Z,11.25
2023-02-24T06:28:58.785Z,11.25
2023-02-24T06:29:58.669Z,11.25
2023-02-24T06:30:58.691Z,11.25
2023-02-24T06:31:58.723Z,11.25
2023-02-24T06:32:58.656Z,11.25
2023-02-24T06:33:58.567Z,16.88
2023-02-24T06:34:58.549Z,16.88
2023-02-24T06:35:58.515Z,16.88
2023-02-24T06:36:58.602Z,16.88
2023-02-24T06:37:58.474Z,16.88
2023-02-24T06:38:58.456Z,16.88
2023-02-24T06:39:58.435Z,22.50
2023-02-24T06:40:58.406Z,22.50
2023-02-24T06:41:58.372Z,22.50
2023-02-24T06:42:58.349Z,22.50
2023-02-24T06:43:58.321Z,22.50
2023-02-24T06:44:58.311Z,22.50
2023-02-24T06:45:58.306Z,22.50
2023-02-24T06:46:58.252Z,28.13
2023-02-24T06:47:58.221Z,28.13
2023-02-24T06:48:58.205Z,28.13
2023-02-24T06:49:58.177Z,28.13
2023-02-24T06:50:58.179Z,28.13
2023-02-24T06:51:58.145Z,33.75
2023-02-24T06:52:58.115Z,33.75
2023-02-24T06:53:58.088Z,33.75
2023-02-24T06:54:58.065Z,33.75
2023-02-24T06:55:58.032Z,39.38
2023-02-24T06:56:58.007Z,39.38
2023-02-24T06:57:58.002Z,39.38
2023-02-24T06:58:57.955Z,39.38
2023-02-24T06:59:57.924Z,39.38
2023-02-24T07:00:57.993Z,45.00
2023-02-24T07:01:57.907Z,45.00
2023-02-24T07:02:57.856Z,45.00
2023-02-24T07:03:57.875Z,50.63
2023-02-24T07:04:57.809Z,50.63
2023-02-24T07:05:57.770Z,50.63
2023-02-24T07:06:57.763Z,50.63
2023-02-24T07:07:57.732Z,56.25
2023-02-24T07:08:57.711Z,56.25
2023-02-24T07:09:57.681Z,56.25
2023-02-24T07:10:57.661Z,56.25
2023-02-24T07:11:57.621Z,56.25
2023-02-24T07:12:57.613Z,56.25
2023-02-24T07:13:57.599Z,56.25
2023-02-24T07:14:57.560Z,61.88
2023-02-24T07:15:57.523Z,61.88
2023-02-24T07:16:57.572Z,61.88
2023-02-24T07:17:57.486Z,61.88
2023-02-24T07:18:57.486Z,67.50
2023-02-24T07:19:57.430Z,67.50
2023-02-24T07:20:57.409Z,67.50
2023-02-24T07:21:57.395Z,67.50
2023-02-24T07:22:57.362Z,67.50
2023-02-24T07:23:59.103Z,67.50
2023-02-24T07:24:57.338Z,67.50
2023-02-24T07:25:57.322Z,73.13
2023-02-24T07:26:57.266Z,73.13
2023-02-24T07:27:57.244Z,73.13
2023-02-24T07:28:57.221Z,73.13
2023-02-24T07:29:57.185Z,73.13
2023-02-24T07:30:57.290Z,78.75
2023-02-24T07:31:57.413Z,78.75
2023-02-24T07:32:57.126Z,78.75
2023-02-24T07:33:57.106Z,78.75
2023-02-24T07:34:57.074Z,84.38
2023-02-24T07:35:57.043Z,84.38
2023-02-24T07:36:57.025Z,90.00
2023-02-24T07:37:57.000Z,90.00
2023-02-24T07:38:56.968Z,90.00
2023-02-24T07:39:56.950Z,95.63
2023-02-24T07:40:56.919Z,95.63
2023-02-24T07:41:56.888Z,95.63
2023-02-24T07:42:56.871Z,95.63
2023-02-24T07:43:56.836Z,95.63
2023-02-24T07:44:56.917Z,95.63
2023-02-24T07:45:56.842Z,95.63
2023-02-24T07:46:56.770Z,101.25
2023-02-24T07:47:56.739Z,95.63
2023-02-24T07:48:56.718Z,101.25
2023-02-24T07:49:56.697Z,101.25
2023-02-24T07:50:56.667Z,106.88
2023-02-24T07:51:56.634Z,112.50
2023-02-24T07:52:56.622Z,112.50
2023-02-24T07:53:56.633Z,112.50
2023-02-24T07:54:56.589Z,112.50
2023-02-24T07:55:56.546Z,123.75
2023-02-24T07:56:57.015Z,129.38
2023-02-24T07:57:56.499Z,123.75
2023-02-24T07:58:56.484Z,123.75
2023-02-24T07:59:56.483Z,123.75
2023-02-24T08:00:56.449Z,129.38
2023-02-24T08:01:56.408Z,135.00
2023-02-24T08:02:56.527Z,135.00
2023-02-24T08:03:56.346Z,146.25
2023-02-24T08:04:56.335Z,151.88
2023-02-24T08:05:56.372Z,146.25
2023-02-24T08:06:56.294Z,146.25
2023-02-24T08:07:56.254Z,157.50
2023-02-24T08:08:56.241Z,163.13
2023-02-24T08:09:56.212Z,168.75
2023-02-24T08:10:56.187Z,168.75
2023-02-24T08:11:56.188Z,174.38
2023-02-24T08:12:56.188Z,174.38
2023-02-24T08:13:56.112Z,168.75
2023-02-24T08:14:56.084Z,174.38
2023-02-24T08:15:56.148Z,180.00
2023-02-24T08:16:56.038Z,191.25
2023-02-24T08:17:58.332Z,191.25
2023-02-24T08:18:55.992Z,191.25
2023-02-24T08:19:55.970Z,196.88
2023-02-24T08:20:55.937Z,191.25
2023-02-24T08:21:55.916Z,196.88
2023-02-24T08:22:55.940Z,208.13
2023-02-24T08:23:55.872Z,202.50
2023-02-24T08:24:55.847Z,202.50
2023-02-24T08:25:55.819Z,196.88
2023-02-24T08:26:55.802Z,213.75
2023-02-24T08:28:06.708Z,213.75
2023-02-24T08:28:55.752Z,213.75
2023-02-24T08:29:55.734Z,219.38
2023-02-24T08:30:55.825Z,213.75
2023-02-24T08:31:55.803Z,219.38
2023-02-24T08:32:55.735Z,219.38
2023-02-24T08:33:55.627Z,219.38
2023-02-24T08:34:55.603Z,219.38
2023-02-24T08:35:55.574Z,236.25
2023-02-24T08:36:55.560Z,236.25
2023-02-24T08:37:55.535Z,236.25
2023-02-24T08:38:55.540Z,236.25
2023-02-24T08:39:55.488Z,247.50
2023-02-24T08:40:55.463Z,258.75
2023-02-24T08:41:55.442Z,253.13
2023-02-24T08:42:55.406Z,253.13
2023-02-24T08:43:55.440Z,264.38
2023-02-24T08:44:55.372Z,270.00
2023-02-24T08:45:55.348Z,270.00
2023-02-24T08:46:55.395Z,275.63
2023-02-24T08:47:55.298Z,281.25
2023-02-24T08:48:55.277Z,275.63
2023-02-24T08:49:55.258Z,270.00
2023-02-24T08:50:55.232Z,275.63
2023-02-24T08:51:55.206Z,270.00
2023-02-24T08:52:55.185Z,270.00
2023-02-24T08:53:55.167Z,275.63
2023-02-24T08:54:55.132Z,281.25
2023-02-24T08:55:55.121Z,270.00
2023-02-24T08:56:55.083Z,281.25
2023-02-24T08:57:55.093Z,286.88
2023-02-24T08:58:55.032Z,286.88
2023-02-24T08:59:55.010Z,292.50
2023-02-24T09:00:55.060Z,286.88
2023-02-24T09:02:04.299Z,292.50
2023-02-24T09:02:54.946Z,298.13
2023-02-24T09:03:54.941Z,309.38
2023-02-24T09:04:55.034Z,315.00
2023-02-24T09:05:54.877Z,315.00
2023-02-24T09:06:57.762Z,320.63
2023-02-24T09:07:54.987Z,315.00
2023-02-24T09:08:54.808Z,315.00
2023-02-24T09:09:54.787Z,320.63
2023-02-24T09:10:54.761Z,326.25
2023-02-24T09:11:54.748Z,331.88
2023-02-24T09:12:54.739Z,348.75
2023-02-24T09:13:54.737Z,360.00
2023-02-24T09:14:54.682Z,365.63
2023-02-24T09:15:54.673Z,376.88
2023-02-24T09:16:54.618Z,365.63
2023-02-24T09:17:54.596Z,354.38
2023-02-24T09:18:54.564Z,354.38
2023-02-24T09:19:54.557Z,354.38
2023-02-24T09:20:54.520Z,348.75
2023-02-24T09:21:54.506Z,354.38
2023-02-24T09:22:54.475Z,365.63
2023-02-24T09:23:54.453Z,365.63
2023-02-24T09:24:54.426Z,360.00
2023-02-24T09:25:54.691Z,371.25
2023-02-24T09:26:54.381Z,388.13
2023-02-24T09:27:54.357Z,382.50
2023-02-24T09:28:54.361Z,376.88
2023-02-24T09:29:54.314Z,365.63
2023-02-24T09:30:54.421Z,365.63
2023-02-24T09:31:54.449Z,354.38
2023-02-24T09:32:54.356Z,337.50
2023-02-24T09:33:54.235Z,331.88
2023-02-24T09:34:54.206Z,337.50
2023-02-24T09:35:54.190Z,337.50
2023-02-24T09:36:54.154Z,326.25
2023-02-24T09:37:54.138Z,331.88
2023-02-24T09:38:54.145Z,326.25
2023-02-24T09:39:54.098Z,331.88
2023-02-24T09:40:54.064Z,331.88
2023-02-24T09:41:54.689Z,337.50
2023-02-24T09:42:54.018Z,331.88
2023-02-24T09:43:54.005Z,337.50
2023-02-24T09:44:53.976Z,315.00
2023-02-24T09:45:54.095Z,303.75
2023-02-24T09:46:54.425Z,292.50
2023-02-24T09:47:53.929Z,298.13
2023-02-24T09:48:53.883Z,298.13
2023-02-24T09:49:53.865Z,303.75
2023-02-24T09:51:03.065Z,320.63
2023-02-24T09:51:53.863Z,326.25
2023-02-24T09:53:00.118Z,331.88
2023-02-24T09:53:53.815Z,337.50
2023-02-24T09:54:53.776Z,360.00
2023-02-24T09:55:53.840Z,371.25
2023-02-24T09:56:53.698Z,382.50
2023-02-24T09:57:53.688Z,382.50
2023-02-24T09:58:53.681Z,365.63
2023-02-24T09:59:53.635Z,354.38
2023-02-24T10:00:53.693Z,376.88
2023-02-24T10:01:53.634Z,371.25
2023-02-24T10:02:53.570Z,354.38
2023-02-24T10:03:53.540Z,348.75
2023-02-24T10:04:53.509Z,326.25
2023-02-24T10:05:53.500Z,337.50
2023-02-24T10:06:53.468Z,337.50
2023-02-24T10:07:53.473Z,337.50
2023-02-24T10:08:53.421Z,354.38
2023-02-24T10:09:53.406Z,388.13
2023-02-24T10:10:53.390Z,427.50
2023-02-24T10:11:53.374Z,427.50
2023-02-24T10:12:53.364Z,427.50
2023-02-24T10:13:53.320Z,444.38
2023-02-24T10:14:53.839Z,444.38
2023-02-24T10:15:57.748Z,461.25
2023-02-24T10:16:53.271Z,489.38
2023-02-24T10:17:53.233Z,528.75
2023-02-24T10:18:53.209Z,534.38
2023-02-24T10:19:53.185Z,528.75
2023-02-24T10:20:53.241Z,534.38
2023-02-24T10:21:53.131Z,534.38
2023-02-24T10:22:53.102Z,556.88
2023-02-24T10:23:54.959Z,551.25
2023-02-24T10:24:53.107Z,568.13
2023-02-24T10:25:53.051Z,534.38
2023-02-24T10:27:00.877Z,551.25
2023-02-24T10:27:53.075Z,573.75
2023-02-24T10:28:53.008Z,562.50
2023-02-24T10:29:52.984Z,534.38
2023-02-24T10:30:52.991Z,506.25
2023-02-24T10:31:53.174Z,517.50
2023-02-24T10:32:53.000Z,495.00
2023-02-24T10:33:52.891Z,495.00
2023-02-24T10:34:52.850Z,528.75
2023-02-24T10:35:52.813Z,556.88
2023-02-24T10:36:52.822Z,551.25
2023-02-24T10:37:52.773Z,585.00
2023-02-24T10:38:52.743Z,545.63
2023-02-24T10:39:52.736Z,523.13
2023-02-24T10:40:52.702Z,489.38
2023-02-24T10:41:52.732Z,483.75
2023-02-24T10:42:52.678Z,483.75
2023-02-24T10:43:52.741Z,483.75
2023-02-24T10:45:01.436Z,489.38
2023-02-24T10:45:52.685Z,489.38
2023-02-24T10:46:52.620Z,483.75
2023-02-24T10:47:52.557Z,500.63
2023-02-24T10:48:52.540Z,517.50
2023-02-24T10:49:52.508Z,545.63
2023-02-24T10:50:55.954Z,556.88
2023-02-24T10:51:52.483Z,556.88
2023-02-24T10:52:52.432Z,545.63
2023-02-24T10:53:52.427Z,506.25
2023-02-24T10:54:52.406Z,483.75
2023-02-24T10:55:52.377Z,472.50
2023-02-24T10:56:52.345Z,495.00
2023-02-24T10:57:59.037Z,517.50
2023-02-24T10:58:52.315Z,500.63
2023-02-24T10:59:52.387Z,523.13
2023-02-24T11:00:52.262Z,517.50
2023-02-24T11:01:52.325Z,472.50
2023-02-24T11:02:52.277Z,421.88
2023-02-24T11:03:52.205Z,365.63
2023-02-24T11:04:52.166Z,320.63
2023-02-24T11:05:52.151Z,320.63
2023-02-24T11:06:52.133Z,348.75
2023-02-24T11:07:52.108Z,337.50
2023-02-24T11:08:52.099Z,298.13
2023-02-24T11:09:52.059Z,303.75
2023-02-24T11:10:52.039Z,337.50
2023-02-24T11:11:52.021Z,365.63
2023-02-24T11:13:00.842Z,416.25
2023-02-24T11:13:51.968Z,461.25
2023-02-24T11:14:51.959Z,455.63
2023-02-24T11:15:52.003Z,517.50
2023-02-24T11:16:51.911Z,601.88
2023-02-24T11:17:51.970Z,601.88
2023-02-24T11:18:51.865Z,652.50
2023-02-24T11:19:51.854Z,765.00
2023-02-24T11:20:51.804Z,843.75
2023-02-24T11:21:51.797Z,855.00
2023-02-24T11:22:51.766Z,855.00
2023-02-24T11:23:51.747Z,804.38
2023-02-24T11:24:51.750Z,708.75
2023-02-24T11:25:51.709Z,658.13
2023-02-24T11:26:51.693Z,590.63
2023-02-24T11:27:51.670Z,579.38
2023-02-24T11:28:51.638Z,579.38
2023-02-24T11:29:51.666Z,579.38
2023-02-24T11:30:51.749Z,556.88
2023-02-24T11:31:51.721Z,540.00
2023-02-24T11:32:51.608Z,506.25
2023-02-24T11:33:51.541Z,483.75
2023-02-24T11:34:51.510Z,495.00
2023-02-24T11:35:51.513Z,523.13
2023-02-24T11:36:51.479Z,540.00
2023-02-24T11:37:51.514Z,517.50
2023-02-24T11:38:51.431Z,523.13
2023-02-24T11:39:51.403Z,523.13
2023-02-24T11:40:51.374Z,511.88
2023-02-24T11:41:51.393Z,517.50
2023-02-24T11:42:51.342Z,545.63
2023-02-24T11:43:51.332Z,568.13
2023-02-24T11:44:51.288Z,596.25
2023-02-24T11:45:51.291Z,652.50
2023-02-24T11:46:51.243Z,703.13
2023-02-24T11:47:51.225Z,810.00
2023-02-24T11:48:51.203Z,871.88
2023-02-24T11:49:51.188Z,826.88
2023-02-24T11:50:51.165Z,725.63
2023-02-24T11:51:51.139Z,714.38
2023-02-24T11:52:51.119Z,776.25
2023-02-24T11:53:51.106Z,810.00
2023-02-24T11:54:51.087Z,928.13
2023-02-24T11:55:51.069Z,1175.63
2023-02-24T11:56:51.046Z,911.25
2023-02-24T11:57:51.022Z,781.88
2023-02-24T11:58:51.009Z,675.00
2023-02-24T11:59:50.972Z,528.75
2023-02-24T12:00:50.957Z,483.75
2023-02-24T12:01:50.931Z,489.38
2023-02-24T12:02:50.939Z,489.38
2023-02-24T12:03:50.890Z,472.50
2023-02-24T12:04:50.872Z,444.38
2023-02-24T12:05:50.926Z,410.63
2023-02-24T12:06:50.836Z,427.50
2023-02-24T12:07:50.810Z,489.38
2023-02-24T12:08:50.836Z,511.88
2023-02-24T12:09:50.775Z,523.13
2023-02-24T12:10:50.756Z,534.38
2023-02-24T12:11:50.727Z,489.38
2023-02-24T12:12:50.712Z,472.50
2023-02-24T12:13:50.698Z,483.75
2023-02-24T12:14:50.656Z,534.38
2023-02-24T12:15:50.757Z,669.38
2023-02-24T12:16:50.615Z,579.38
2023-02-24T12:17:50.606Z,433.13
2023-02-24T12:18:50.576Z,421.88
2023-02-24T12:19:50.558Z,450.00
2023-02-24T12:20:50.530Z,455.63
2023-02-24T12:21:50.516Z,478.13
2023-02-24T12:22:50.498Z,506.25
2023-02-24T12:23:50.480Z,523.13
2023-02-24T12:24:50.447Z,635.63
2023-02-24T12:25:50.430Z,573.75
2023-02-24T12:26:50.411Z,646.88
2023-02-24T12:27:50.384Z,720.00
2023-02-24T12:28:50.366Z,742.50
2023-02-24T12:29:50.367Z,669.38
2023-02-24T12:30:50.363Z,635.63
2023-02-24T12:31:50.402Z,675.00
2023-02-24T12:32:50.421Z,714.38
2023-02-24T12:33:50.249Z,658.13
2023-02-24T12:34:50.233Z,770.63
2023-02-24T12:35:50.221Z,697.50
2023-02-24T12:36:50.203Z,742.50
2023-02-24T12:37:50.181Z,843.75
2023-02-24T12:38:50.143Z,613.13
2023-02-24T12:39:50.149Z,646.88
2023-02-24T12:40:50.124Z,624.38
2023-02-24T12:41:50.089Z,556.88
2023-02-24T12:42:50.074Z,500.63
2023-02-24T12:43:50.047Z,540.00
2023-02-24T12:44:50.026Z,528.75
2023-02-24T12:45:50.048Z,495.00
2023-02-24T12:46:49.980Z,466.88
2023-02-24T12:47:49.967Z,455.63
2023-02-24T12:48:49.947Z,438.75
2023-02-24T12:49:49.927Z,461.25
2023-02-24T12:50:49.905Z,489.38
2023-02-24T12:51:49.884Z,545.63
2023-02-24T12:52:49.851Z,601.88
2023-02-24T12:53:49.846Z,720.00
2023-02-24T12:54:49.822Z,748.13